sensor_id;sensor_type;location;lat;lon;timestamp;P1;durP1;ratioP1;P2;durP2;ratioP2
41059;SDS011;26811;53.160;8.202;2024-03-08T00:03:43;60.22;;;23.00;;
41059;SDS011;26811;53.160;8.202;2024-03-08T00:08:44;56.40;;;24.65;;
41059;SDS011;26811;53.160;8.202;2024-03-08T00:13:45;57.35;;;24.23;;
41059;SDS011;26811;53.160;8.202;2024-03-08T00:18:46;57.17;;;23.42;;
41059;SDS011;26811;53.160;8.202;2024-03-08T00:23:49;62.20;;;24.87;;
41059;SDS011;26811;53.160;8.202;2024-03-08T00:28:49;59.78;;;23.45;;
41059;SDS011;26811;53.160;8.202;2024-03-08T00:33:50;56.40;;;24.17;;
41059;SDS011;26811;53.160;8.202;2024-03-08T00:38:52;56.40;;;23.13;;
41059;SDS011;26811;53.160;8.202;2024-03-08T00:43:53;56.00;;;23.63;;
41059;SDS011;26811;53.160;8.202;2024-03-08T00:48:53;57.47;;;23.55;;
41059;SDS011;26811;53.160;8.202;2024-03-08T00:53:53;56.40;;;22.55;;
41059;SDS011;26811;53.160;8.202;2024-03-08T00:58:54;55.17;;;22.30;;
41059;SDS011;26811;53.160;8.202;2024-03-08T01:03:54;55.15;;;21.70;;
41059;SDS011;26811;53.160;8.202;2024-03-08T01:08:56;58.63;;;23.25;;
41059;SDS011;26811;53.160;8.202;2024-03-08T01:13:57;53.03;;;22.13;;
41059;SDS011;26811;53.160;8.202;2024-03-08T01:18:57;47.33;;;21.38;;
41059;SDS011;26811;53.160;8.202;2024-03-08T01:23:58;48.50;;;20.00;;
41059;SDS011;26811;53.160;8.202;2024-03-08T01:28:58;51.80;;;21.73;;
41059;SDS011;26811;53.160;8.202;2024-03-08T01:33:59;53.42;;;22.15;;
41059;SDS011;26811;53.160;8.202;2024-03-08T01:39:00;53.85;;;21.85;;
41059;SDS011;26811;53.160;8.202;2024-03-08T01:44:01;53.22;;;21.00;;
41059;SDS011;26811;53.160;8.202;2024-03-08T01:49:02;47.67;;;20.88;;
41059;SDS011;26811;53.160;8.202;2024-03-08T01:54:03;51.67;;;22.00;;
41059;SDS011;26811;53.160;8.202;2024-03-08T01:59:04;44.97;;;20.65;;
41059;SDS011;26811;53.160;8.202;2024-03-08T02:04:07;47.20;;;20.42;;
41059;SDS011;26811;53.160;8.202;2024-03-08T02:09:08;51.13;;;20.83;;
41059;SDS011;26811;53.160;8.202;2024-03-08T02:14:09;48.85;;;20.05;;
41059;SDS011;26811;53.160;8.202;2024-03-08T02:19:11;54.03;;;21.52;;
41059;SDS011;26811;53.160;8.202;2024-03-08T02:24:11;50.80;;;21.08;;
41059;SDS011;26811;53.160;8.202;2024-03-08T02:29:12;52.28;;;20.33;;
41059;SDS011;26811;53.160;8.202;2024-03-08T02:34:14;49.53;;;21.38;;
41059;SDS011;26811;53.160;8.202;2024-03-08T02:39:15;48.20;;;21.73;;
41059;SDS011;26811;53.160;8.202;2024-03-08T02:44:15;47.97;;;21.30;;
41059;SDS011;26811;53.160;8.202;2024-03-08T02:49:16;43.55;;;19.58;;
41059;SDS011;26811;53.160;8.202;2024-03-08T02:54:16;52.35;;;22.73;;
41059;SDS011;26811;53.160;8.202;2024-03-08T02:59:17;49.45;;;21.63;;
41059;SDS011;26811;53.160;8.202;2024-03-08T03:04:18;42.63;;;19.65;;
41059;SDS011;26811;53.160;8.202;2024-03-08T03:09:19;46.30;;;20.17;;
41059;SDS011;26811;53.160;8.202;2024-03-08T03:14:24;50.22;;;21.80;;
41059;SDS011;26811;53.160;8.202;2024-03-08T03:19:26;50.58;;;21.30;;
41059;SDS011;26811;53.160;8.202;2024-03-08T03:24:27;53.03;;;22.60;;
41059;SDS011;26811;53.160;8.202;2024-03-08T03:29:29;50.17;;;22.45;;
41059;SDS011;26811;53.160;8.202;2024-03-08T03:34:30;58.30;;;22.73;;
41059;SDS011;26811;53.160;8.202;2024-03-08T03:39:30;45.97;;;20.30;;
41059;SDS011;26811;53.160;8.202;2024-03-08T03:49:34;45.00;;;19.27;;
41059;SDS011;26811;53.160;8.202;2024-03-08T03:54:35;46.08;;;20.73;;
41059;SDS011;26811;53.160;8.202;2024-03-08T03:59:35;48.70;;;21.85;;
41059;SDS011;26811;53.160;8.202;2024-03-08T04:04:36;49.78;;;20.83;;
41059;SDS011;26811;53.160;8.202;2024-03-08T04:09:36;51.72;;;21.75;;
41059;SDS011;26811;53.160;8.202;2024-03-08T04:14:38;45.92;;;21.77;;
41059;SDS011;26811;53.160;8.202;2024-03-08T04:19:42;45.22;;;20.25;;
41059;SDS011;26811;53.160;8.202;2024-03-08T04:24:44;48.92;;;21.27;;
41059;SDS011;26811;53.160;8.202;2024-03-08T04:29:45;54.53;;;22.65;;
41059;SDS011;26811;53.160;8.202;2024-03-08T04:34:46;49.58;;;22.50;;
41059;SDS011;26811;53.160;8.202;2024-03-08T04:39:47;45.63;;;20.70;;
41059;SDS011;26811;53.160;8.202;2024-03-08T04:44:48;51.63;;;22.45;;
41059;SDS011;26811;53.160;8.202;2024-03-08T04:49:48;49.88;;;21.70;;
41059;SDS011;26811;53.160;8.202;2024-03-08T04:54:50;50.10;;;21.63;;
41059;SDS011;26811;53.160;8.202;2024-03-08T04:59:51;51.50;;;21.23;;
41059;SDS011;26811;53.160;8.202;2024-03-08T05:04:52;59.38;;;24.77;;
41059;SDS011;26811;53.160;8.202;2024-03-08T05:09:52;50.03;;;21.45;;
41059;SDS011;26811;53.160;8.202;2024-03-08T05:14:53;53.45;;;22.60;;
41059;SDS011;26811;53.160;8.202;2024-03-08T05:19:53;54.38;;;22.65;;
41059;SDS011;26811;53.160;8.202;2024-03-08T05:24:54;51.20;;;22.33;;
41059;SDS011;26811;53.160;8.202;2024-03-08T05:29:55;54.65;;;23.00;;
41059;SDS011;26811;53.160;8.202;2024-03-08T05:34:56;56.17;;;23.13;;
41059;SDS011;26811;53.160;8.202;2024-03-08T05:39:56;54.45;;;23.70;;
41059;SDS011;26811;53.160;8.202;2024-03-08T05:44:57;56.35;;;22.83;;
41059;SDS011;26811;53.160;8.202;2024-03-08T05:49:58;59.10;;;24.13;;
41059;SDS011;26811;53.160;8.202;2024-03-08T05:54:59;58.95;;;22.80;;
41059;SDS011;26811;53.160;8.202;2024-03-08T06:00:00;50.35;;;22.70;;
41059;SDS011;26811;53.160;8.202;2024-03-08T06:05:00;60.00;;;24.10;;
41059;SDS011;26811;53.160;8.202;2024-03-08T06:10:02;62.63;;;25.10;;
41059;SDS011;26811;53.160;8.202;2024-03-08T06:15:03;58.30;;;24.77;;
41059;SDS011;26811;53.160;8.202;2024-03-08T06:20:04;55.38;;;23.85;;
41059;SDS011;26811;53.160;8.202;2024-03-08T06:25:10;54.28;;;22.67;;
41059;SDS011;26811;53.160;8.202;2024-03-08T06:30:14;51.35;;;23.85;;
41059;SDS011;26811;53.160;8.202;2024-03-08T06:35:15;54.67;;;24.23;;
41059;SDS011;26811;53.160;8.202;2024-03-08T06:40:16;57.08;;;24.02;;
41059;SDS011;26811;53.160;8.202;2024-03-08T06:45:17;55.33;;;23.50;;
41059;SDS011;26811;53.160;8.202;2024-03-08T06:50:20;52.90;;;23.35;;
41059;SDS011;26811;53.160;8.202;2024-03-08T06:55:21;56.40;;;24.38;;
41059;SDS011;26811;53.160;8.202;2024-03-08T07:00:21;61.72;;;23.92;;
41059;SDS011;26811;53.160;8.202;2024-03-08T07:05:27;55.25;;;25.83;;
41059;SDS011;26811;53.160;8.202;2024-03-08T07:10:28;59.85;;;25.17;;
41059;SDS011;26811;53.160;8.202;2024-03-08T07:15:29;56.65;;;25.95;;
41059;SDS011;26811;53.160;8.202;2024-03-08T07:20:29;53.15;;;23.45;;
41059;SDS011;26811;53.160;8.202;2024-03-08T07:25:30;54.35;;;24.88;;
41059;SDS011;26811;53.160;8.202;2024-03-08T07:30:30;64.30;;;27.50;;
41059;SDS011;26811;53.160;8.202;2024-03-08T07:35:54;53.15;;;24.10;;
41059;SDS011;26811;53.160;8.202;2024-03-08T07:40:54;61.63;;;26.42;;
41059;SDS011;26811;53.160;8.202;2024-03-08T07:45:57;59.35;;;26.75;;
41059;SDS011;26811;53.160;8.202;2024-03-08T07:51:00;60.75;;;23.90;;
41059;SDS011;26811;53.160;8.202;2024-03-08T08:01:01;49.65;;;23.15;;
41059;SDS011;26811;53.160;8.202;2024-03-08T08:06:02;49.97;;;22.90;;
41059;SDS011;26811;53.160;8.202;2024-03-08T08:11:03;43.95;;;21.20;;
41059;SDS011;26811;53.160;8.202;2024-03-08T08:16:06;49.07;;;22.30;;
41059;SDS011;26811;53.160;8.202;2024-03-08T08:21:10;54.25;;;23.83;;
41059;SDS011;26811;53.160;8.202;2024-03-08T08:26:11;49.55;;;22.23;;
41059;SDS011;26811;53.160;8.202;2024-03-08T08:31:11;51.28;;;23.30;;
41059;SDS011;26811;53.160;8.202;2024-03-08T08:36:13;45.20;;;20.75;;
41059;SDS011;26811;53.160;8.202;2024-03-08T08:41:13;50.20;;;22.60;;
41059;SDS011;26811;53.160;8.202;2024-03-08T08:46:17;47.13;;;22.80;;
41059;SDS011;26811;53.160;8.202;2024-03-08T08:51:18;50.70;;;23.35;;
41059;SDS011;26811;53.160;8.202;2024-03-08T08:56:18;46.28;;;23.33;;
41059;SDS011;26811;53.160;8.202;2024-03-08T09:01:19;45.17;;;21.90;;
41059;SDS011;26811;53.160;8.202;2024-03-08T09:06:20;49.92;;;23.30;;
41059;SDS011;26811;53.160;8.202;2024-03-08T09:11:21;45.90;;;22.33;;
41059;SDS011;26811;53.160;8.202;2024-03-08T09:16:21;44.30;;;21.42;;
41059;SDS011;26811;53.160;8.202;2024-03-08T09:21:22;44.03;;;21.83;;
41059;SDS011;26811;53.160;8.202;2024-03-08T09:26:24;44.25;;;21.88;;
41059;SDS011;26811;53.160;8.202;2024-03-08T09:31:25;39.72;;;20.75;;
41059;SDS011;26811;53.160;8.202;2024-03-08T09:36:25;41.97;;;21.38;;
41059;SDS011;26811;53.160;8.202;2024-03-08T09:41:27;46.92;;;22.30;;
41059;SDS011;26811;53.160;8.202;2024-03-08T09:46:28;46.67;;;21.17;;
41059;SDS011;26811;53.160;8.202;2024-03-08T09:51:30;46.20;;;21.58;;
41059;SDS011;26811;53.160;8.202;2024-03-08T09:56:35;43.55;;;21.95;;
41059;SDS011;26811;53.160;8.202;2024-03-08T10:01:36;49.30;;;22.08;;
41059;SDS011;26811;53.160;8.202;2024-03-08T10:06:41;43.07;;;21.97;;
41059;SDS011;26811;53.160;8.202;2024-03-08T10:11:42;45.17;;;21.83;;
41059;SDS011;26811;53.160;8.202;2024-03-08T10:16:42;45.72;;;23.13;;
41059;SDS011;26811;53.160;8.202;2024-03-08T10:21:47;44.80;;;22.48;;
41059;SDS011;26811;53.160;8.202;2024-03-08T10:27:00;45.67;;;22.92;;
41059;SDS011;26811;53.160;8.202;2024-03-08T10:32:05;48.38;;;23.75;;
41059;SDS011;26811;53.160;8.202;2024-03-08T10:37:07;45.42;;;22.80;;
41059;SDS011;26811;53.160;8.202;2024-03-08T10:42:14;49.83;;;24.38;;
41059;SDS011;26811;53.160;8.202;2024-03-08T10:47:19;44.72;;;23.35;;
41059;SDS011;26811;53.160;8.202;2024-03-08T10:52:26;44.80;;;23.30;;
41059;SDS011;26811;53.160;8.202;2024-03-08T10:57:26;49.95;;;24.15;;
41059;SDS011;26811;53.160;8.202;2024-03-08T11:02:28;46.20;;;23.58;;
41059;SDS011;26811;53.160;8.202;2024-03-08T11:07:34;48.15;;;24.23;;
41059;SDS011;26811;53.160;8.202;2024-03-08T11:12:36;43.83;;;23.63;;
41059;SDS011;26811;53.160;8.202;2024-03-08T11:22:39;45.88;;;24.33;;
41059;SDS011;26811;53.160;8.202;2024-03-08T11:27:52;47.63;;;23.10;;
41059;SDS011;26811;53.160;8.202;2024-03-08T11:33:05;45.95;;;23.95;;
41059;SDS011;26811;53.160;8.202;2024-03-08T11:38:12;47.03;;;24.98;;
41059;SDS011;26811;53.160;8.202;2024-03-08T11:43:13;48.90;;;24.58;;
41059;SDS011;26811;53.160;8.202;2024-03-08T11:48:14;47.63;;;24.20;;
41059;SDS011;26811;53.160;8.202;2024-03-08T11:53:14;52.40;;;24.60;;
41059;SDS011;26811;53.160;8.202;2024-03-08T11:58:15;47.85;;;24.10;;
41059;SDS011;26811;53.160;8.202;2024-03-08T12:03:16;45.00;;;23.73;;
41059;SDS011;26811;53.160;8.202;2024-03-08T12:08:18;47.50;;;24.85;;
41059;SDS011;26811;53.160;8.202;2024-03-08T12:13:19;54.75;;;24.10;;
41059;SDS011;26811;53.160;8.202;2024-03-08T12:18:20;46.67;;;24.42;;
41059;SDS011;26811;53.160;8.202;2024-03-08T12:23:21;50.40;;;23.00;;
41059;SDS011;26811;53.160;8.202;2024-03-08T12:28:26;45.15;;;23.40;;
41059;SDS011;26811;53.160;8.202;2024-03-08T12:33:26;48.78;;;24.27;;
41059;SDS011;26811;53.160;8.202;2024-03-08T12:38:27;44.55;;;22.58;;
41059;SDS011;26811;53.160;8.202;2024-03-08T12:43:28;41.05;;;23.13;;
41059;SDS011;26811;53.160;8.202;2024-03-08T12:48:39;44.70;;;22.25;;
41059;SDS011;26811;53.160;8.202;2024-03-08T12:53:47;41.85;;;21.48;;
41059;SDS011;26811;53.160;8.202;2024-03-08T12:58:47;47.88;;;22.80;;
41059;SDS011;26811;53.160;8.202;2024-03-08T13:03:48;42.70;;;21.30;;
41059;SDS011;26811;53.160;8.202;2024-03-08T13:08:52;40.65;;;20.92;;
41059;SDS011;26811;53.160;8.202;2024-03-08T13:13:53;42.28;;;21.40;;
41059;SDS011;26811;53.160;8.202;2024-03-08T13:18:54;39.92;;;21.48;;
41059;SDS011;26811;53.160;8.202;2024-03-08T13:23:54;39.55;;;20.30;;
41059;SDS011;26811;53.160;8.202;2024-03-08T13:28:55;39.55;;;19.58;;
41059;SDS011;26811;53.160;8.202;2024-03-08T13:33:56;40.58;;;20.65;;
41059;SDS011;26811;53.160;8.202;2024-03-08T13:38:59;44.30;;;21.73;;
41059;SDS011;26811;53.160;8.202;2024-03-08T13:44:00;41.20;;;20.88;;
41059;SDS011;26811;53.160;8.202;2024-03-08T13:49:03;38.85;;;20.55;;
41059;SDS011;26811;53.160;8.202;2024-03-08T13:54:09;40.28;;;20.27;;
41059;SDS011;26811;53.160;8.202;2024-03-08T13:59:31;38.80;;;20.17;;
41059;SDS011;26811;53.160;8.202;2024-03-08T14:04:35;40.08;;;20.77;;
41059;SDS011;26811;53.160;8.202;2024-03-08T14:09:38;43.85;;;22.98;;
41059;SDS011;26811;53.160;8.202;2024-03-08T14:14:52;43.40;;;22.98;;
41059;SDS011;26811;53.160;8.202;2024-03-08T14:44:06;44.40;;;22.27;;
41059;SDS011;26811;53.160;8.202;2024-03-08T14:48:43;44.08;;;21.73;;
41059;SDS011;26811;53.160;8.202;2024-03-08T14:53:46;46.10;;;22.27;;
41059;SDS011;26811;53.160;8.202;2024-03-08T14:58:47;44.08;;;22.70;;
41059;SDS011;26811;53.160;8.202;2024-03-08T15:03:51;46.78;;;22.95;;
41059;SDS011;26811;53.160;8.202;2024-03-08T15:08:52;44.38;;;21.92;;
41059;SDS011;26811;53.160;8.202;2024-03-08T15:13:52;44.03;;;22.63;;
41059;SDS011;26811;53.160;8.202;2024-03-08T15:18:53;44.78;;;22.08;;
41059;SDS011;26811;53.160;8.202;2024-03-08T15:23:54;43.78;;;21.92;;
41059;SDS011;26811;53.160;8.202;2024-03-08T15:28:55;44.22;;;22.55;;
41059;SDS011;26811;53.160;8.202;2024-03-08T15:34:09;45.83;;;22.58;;
41059;SDS011;26811;53.160;8.202;2024-03-08T15:39:11;43.80;;;23.58;;
41059;SDS011;26811;53.160;8.202;2024-03-08T15:44:12;43.38;;;21.38;;
41059;SDS011;26811;53.160;8.202;2024-03-08T15:49:13;43.10;;;22.88;;
41059;SDS011;26811;53.160;8.202;2024-03-08T15:54:14;44.30;;;23.33;;
41059;SDS011;26811;53.160;8.202;2024-03-08T15:59:14;49.85;;;24.60;;
41059;SDS011;26811;53.160;8.202;2024-03-08T16:04:16;48.70;;;25.88;;
41059;SDS011;26811;53.160;8.202;2024-03-08T16:09:17;60.45;;;27.85;;
41059;SDS011;26811;53.160;8.202;2024-03-08T16:14:17;55.17;;;27.67;;
41059;SDS011;26811;53.160;8.202;2024-03-08T16:19:20;52.67;;;24.23;;
41059;SDS011;26811;53.160;8.202;2024-03-08T16:24:23;45.70;;;23.08;;
41059;SDS011;26811;53.160;8.202;2024-03-08T16:29:23;41.95;;;21.83;;
41059;SDS011;26811;53.160;8.202;2024-03-08T16:34:24;45.67;;;20.10;;
41059;SDS011;26811;53.160;8.202;2024-03-08T16:39:24;40.65;;;20.65;;
41059;SDS011;26811;53.160;8.202;2024-03-08T16:44:28;42.78;;;21.15;;
41059;SDS011;26811;53.160;8.202;2024-03-08T16:49:30;41.53;;;20.58;;
41059;SDS011;26811;53.160;8.202;2024-03-08T16:54:30;46.92;;;21.50;;
41059;SDS011;26811;53.160;8.202;2024-03-08T16:59:32;46.80;;;22.48;;
41059;SDS011;26811;53.160;8.202;2024-03-08T17:04:33;49.50;;;23.92;;
41059;SDS011;26811;53.160;8.202;2024-03-08T17:09:34;50.28;;;23.83;;
41059;SDS011;26811;53.160;8.202;2024-03-08T17:14:35;51.92;;;23.60;;
41059;SDS011;26811;53.160;8.202;2024-03-08T17:19:38;42.58;;;20.98;;
41059;SDS011;26811;53.160;8.202;2024-03-08T17:24:39;43.38;;;20.98;;
41059;SDS011;26811;53.160;8.202;2024-03-08T17:29:40;38.13;;;19.52;;
41059;SDS011;26811;53.160;8.202;2024-03-08T17:34:41;46.30;;;20.67;;
41059;SDS011;26811;53.160;8.202;2024-03-08T17:39:42;41.65;;;19.98;;
41059;SDS011;26811;53.160;8.202;2024-03-08T17:44:42;41.50;;;20.88;;
41059;SDS011;26811;53.160;8.202;2024-03-08T17:49:45;45.92;;;21.77;;
41059;SDS011;26811;53.160;8.202;2024-03-08T17:54:48;47.97;;;23.60;;
41059;SDS011;26811;53.160;8.202;2024-03-08T18:00:27;45.20;;;23.30;;
41059;SDS011;26811;53.160;8.202;2024-03-08T18:11:51;51.28;;;23.88;;
41059;SDS011;26811;53.160;8.202;2024-03-08T18:16:55;53.67;;;24.13;;
41059;SDS011;26811;53.160;8.202;2024-03-08T18:21:58;54.88;;;24.83;;
41059;SDS011;26811;53.160;8.202;2024-03-08T18:27:08;52.50;;;25.45;;
41059;SDS011;26811;53.160;8.202;2024-03-08T18:32:21;51.30;;;21.92;;
41059;SDS011;26811;53.160;8.202;2024-03-08T18:37:27;49.40;;;24.48;;
41059;SDS011;26811;53.160;8.202;2024-03-08T18:42:28;53.70;;;23.95;;
41059;SDS011;26811;53.160;8.202;2024-03-08T18:47:30;50.72;;;24.08;;
41059;SDS011;26811;53.160;8.202;2024-03-08T18:52:33;54.10;;;23.42;;
41059;SDS011;26811;53.160;8.202;2024-03-08T19:03:40;47.97;;;21.60;;
41059;SDS011;26811;53.160;8.202;2024-03-08T19:09:09;48.17;;;21.67;;
41059;SDS011;26811;53.160;8.202;2024-03-08T19:14:14;49.88;;;22.38;;
41059;SDS011;26811;53.160;8.202;2024-03-08T19:19:47;47.45;;;22.02;;
41059;SDS011;26811;53.160;8.202;2024-03-08T19:25:06;53.47;;;22.25;;
41059;SDS011;26811;53.160;8.202;2024-03-08T19:30:41;52.15;;;23.38;;
41059;SDS011;26811;53.160;8.202;2024-03-08T19:35:42;54.03;;;21.98;;
41059;SDS011;26811;53.160;8.202;2024-03-08T19:40:43;57.05;;;23.17;;
41059;SDS011;26811;53.160;8.202;2024-03-08T19:45:44;51.03;;;22.70;;
41059;SDS011;26811;53.160;8.202;2024-03-08T19:50:45;51.13;;;22.30;;
41059;SDS011;26811;53.160;8.202;2024-03-08T19:55:46;56.83;;;22.95;;
41059;SDS011;26811;53.160;8.202;2024-03-08T20:00:49;48.78;;;22.23;;
41059;SDS011;26811;53.160;8.202;2024-03-08T20:05:50;55.08;;;22.67;;
41059;SDS011;26811;53.160;8.202;2024-03-08T20:10:54;53.03;;;22.30;;
41059;SDS011;26811;53.160;8.202;2024-03-08T20:15:56;55.80;;;22.05;;
41059;SDS011;26811;53.160;8.202;2024-03-08T20:20:57;54.17;;;24.17;;
41059;SDS011;26811;53.160;8.202;2024-03-08T20:25:58;52.80;;;22.58;;
41059;SDS011;26811;53.160;8.202;2024-03-08T20:30:58;51.67;;;22.50;;
41059;SDS011;26811;53.160;8.202;2024-03-08T20:35:59;61.70;;;23.67;;
41059;SDS011;26811;53.160;8.202;2024-03-08T20:41:01;50.00;;;21.23;;
41059;SDS011;26811;53.160;8.202;2024-03-08T20:46:08;51.15;;;22.08;;
41059;SDS011;26811;53.160;8.202;2024-03-08T20:51:11;53.08;;;23.52;;
41059;SDS011;26811;53.160;8.202;2024-03-08T20:56:12;55.83;;;22.05;;
41059;SDS011;26811;53.160;8.202;2024-03-08T21:01:15;49.55;;;21.25;;
41059;SDS011;26811;53.160;8.202;2024-03-08T21:06:15;51.97;;;21.05;;
41059;SDS011;26811;53.160;8.202;2024-03-08T21:11:18;53.55;;;21.95;;
41059;SDS011;26811;53.160;8.202;2024-03-08T21:16:18;54.30;;;22.00;;
41059;SDS011;26811;53.160;8.202;2024-03-08T21:21:19;45.60;;;20.40;;
41059;SDS011;26811;53.160;8.202;2024-03-08T21:26:19;50.25;;;20.75;;
41059;SDS011;26811;53.160;8.202;2024-03-08T21:31:20;49.20;;;20.45;;
41059;SDS011;26811;53.160;8.202;2024-03-08T21:36:23;48.13;;;19.90;;
41059;SDS011;26811;53.160;8.202;2024-03-08T21:41:24;48.83;;;20.20;;
41059;SDS011;26811;53.160;8.202;2024-03-08T21:46:24;50.78;;;20.35;;
41059;SDS011;26811;53.160;8.202;2024-03-08T21:51:25;47.55;;;20.05;;
41059;SDS011;26811;53.160;8.202;2024-03-08T21:56:25;48.55;;;19.95;;
41059;SDS011;26811;53.160;8.202;2024-03-08T22:01:26;46.72;;;19.80;;
41059;SDS011;26811;53.160;8.202;2024-03-08T22:06:26;43.78;;;19.38;;
41059;SDS011;26811;53.160;8.202;2024-03-08T22:11:27;50.35;;;19.52;;
41059;SDS011;26811;53.160;8.202;2024-03-08T22:16:28;40.60;;;18.77;;
41059;SDS011;26811;53.160;8.202;2024-03-08T22:21:33;41.33;;;18.77;;
41059;SDS011;26811;53.160;8.202;2024-03-08T22:26:34;48.05;;;19.55;;
41059;SDS011;26811;53.160;8.202;2024-03-08T22:31:35;44.85;;;19.00;;
41059;SDS011;26811;53.160;8.202;2024-03-08T22:36:36;46.10;;;19.60;;
41059;SDS011;26811;53.160;8.202;2024-03-08T22:41:39;44.95;;;19.55;;
41059;SDS011;26811;53.160;8.202;2024-03-08T22:46:40;43.50;;;19.48;;
41059;SDS011;26811;53.160;8.202;2024-03-08T22:51:41;43.85;;;19.83;;
41059;SDS011;26811;53.160;8.202;2024-03-08T22:56:42;45.38;;;19.08;;
41059;SDS011;26811;53.160;8.202;2024-03-08T23:01:42;40.17;;;18.70;;
41059;SDS011;26811;53.160;8.202;2024-03-08T23:06:45;42.70;;;18.83;;
41059;SDS011;26811;53.160;8.202;2024-03-08T23:11:46;40.70;;;18.33;;
41059;SDS011;26811;53.160;8.202;2024-03-08T23:16:47;44.22;;;18.08;;
41059;SDS011;26811;53.160;8.202;2024-03-08T23:21:50;43.05;;;18.50;;
41059;SDS011;26811;53.160;8.202;2024-03-08T23:26:50;45.35;;;19.23;;
41059;SDS011;26811;53.160;8.202;2024-03-08T23:31:51;45.20;;;18.88;;
41059;SDS011;26811;53.160;8.202;2024-03-08T23:36:54;50.63;;;19.98;;
41059;SDS011;26811;53.160;8.202;2024-03-08T23:41:55;42.15;;;19.25;;
41059;SDS011;26811;53.160;8.202;2024-03-08T23:46:55;49.10;;;19.88;;
41059;SDS011;26811;53.160;8.202;2024-03-08T23:51:56;40.67;;;18.85;;
41059;SDS011;26811;53.160;8.202;2024-03-08T23:56:56;50.20;;;19.95;;
